EGTK

Oxford (Kidlington) Airport

Kidlington, United Kingdom
METAR EGTK 162120Z 20006KT 9999 BKN020 OVC026 12/11 Q1016
Observed Flight Rules
Oct-16 @ 21:20 UTC (7 hours ago) Marginal Visual Flight Rules
Wind Visibility Clouds
200° at 6 knots 10,000+ meters
  • Broken at 2,000' AGL
  • Overcast at 2,600' AGL
Temperatures Readings
Current 12°C / 54°F
Dewpoint 11°C / 52°F
Humidity 94%
Altimeter 30" Hg
Pressure 1016 hPa
Elevation 82
METAR EGTK 162120Z 20006KT 9999 BKN020 OVC026 12/11 Q1016
Observed Flight Rules
Oct-16 @ 21:20 UTC
(7 hours ago)
MVFR
Wind Visibility
200° at 6 knots 10,000+ meters
Clouds
  • Broken at 2,000' AGL
  • Overcast at 2,600' AGL
Temperature Dewpoint
12°C / 54°F 11°C / 52°F
Humidity Altimeter Pressure
94% 30" Hg 1016 hPa